createdAt,value
2023-08-07T00:02:05.239Z,93.83
2023-08-07T00:04:32.038Z,94.85
2023-08-07T00:06:58.825Z,98.53
2023-08-07T00:09:25.622Z,97.67
2023-08-07T00:11:52.452Z,97.77
2023-08-07T00:14:19.255Z,99.30
2023-08-07T00:16:46.139Z,99.27
2023-08-07T00:19:12.936Z,99.60
2023-08-07T00:21:40.249Z,100.00
2023-08-07T00:24:07.224Z,99.68
2023-08-07T00:26:34.114Z,100.00
2023-08-07T00:29:01.209Z,100.00
2023-08-07T00:31:32.166Z,100.00
2023-08-07T00:34:00.703Z,100.00
2023-08-07T00:36:30.049Z,100.00
2023-08-07T00:38:57.152Z,100.00
2023-08-07T00:41:24.405Z,100.00
2023-08-07T00:43:51.377Z,100.00
2023-08-07T00:46:19.446Z,100.00
2023-08-07T00:48:47.060Z,100.00
2023-08-07T00:51:14.220Z,100.00
2023-08-07T00:53:41.748Z,100.00
2023-08-07T00:56:08.854Z,99.29
2023-08-07T00:58:35.975Z,100.00
2023-08-07T01:01:04.004Z,100.00
2023-08-07T01:03:31.027Z,100.00
2023-08-07T01:05:58.173Z,99.23
2023-08-07T01:08:28.905Z,100.00
2023-08-07T01:11:23.711Z,100.00
2023-08-07T01:14:16.412Z,100.00
2023-08-07T01:16:54.333Z,100.00
2023-08-07T01:19:26.440Z,100.00
2023-08-07T01:22:07.974Z,100.00
2023-08-07T01:24:39.051Z,100.00
2023-08-07T01:27:23.989Z,100.00
2023-08-07T01:30:18.947Z,100.00
2023-08-07T01:33:17.745Z,100.00
2023-08-07T01:35:48.785Z,100.00
2023-08-07T01:38:16.363Z,100.00
2023-08-07T01:40:44.769Z,100.00
2023-08-07T01:43:11.501Z,100.00
2023-08-07T01:45:38.585Z,100.00
2023-08-07T01:48:05.681Z,100.00
2023-08-07T01:50:32.682Z,100.00
2023-08-07T01:52:59.527Z,100.00
2023-08-07T01:55:26.568Z,100.00
2023-08-07T01:57:53.549Z,100.00
2023-08-07T02:00:20.895Z,100.00
2023-08-07T02:02:48.308Z,100.00
2023-08-07T02:05:16.191Z,100.00
2023-08-07T02:07:43.270Z,100.00
2023-08-07T02:10:10.293Z,100.00
2023-08-07T02:12:37.177Z,100.00
2023-08-07T02:15:04.358Z,100.00
2023-08-07T02:17:31.696Z,100.00
2023-08-07T02:19:59.008Z,100.00
2023-08-07T02:22:26.233Z,100.00
2023-08-07T02:24:53.060Z,100.00
2023-08-07T02:27:19.923Z,100.00
2023-08-07T02:29:47.582Z,100.00
2023-08-07T02:32:14.369Z,100.00
2023-08-07T02:34:41.409Z,100.00
2023-08-07T02:37:08.176Z,100.00
2023-08-07T02:39:34.991Z,100.00
2023-08-07T02:42:01.969Z,100.00
2023-08-07T02:44:28.777Z,100.00
2023-08-07T02:46:55.803Z,100.00
2023-08-07T02:49:22.937Z,100.00
2023-08-07T02:51:49.903Z,100.00
2023-08-07T02:54:16.676Z,100.00
2023-08-07T02:56:43.540Z,100.00
2023-08-07T02:59:10.374Z,100.00
2023-08-07T03:01:37.330Z,100.00
2023-08-07T03:04:04.290Z,100.00
2023-08-07T03:06:31.247Z,100.00
2023-08-07T03:08:58.002Z,100.00
2023-08-07T03:11:24.868Z,100.00
2023-08-07T03:13:51.672Z,100.00
2023-08-07T03:16:18.834Z,100.00
2023-08-07T03:18:46.112Z,100.00
2023-08-07T03:21:12.895Z,100.00
2023-08-07T03:23:40.718Z,100.00
2023-08-07T03:28:40.915Z,100.00
2023-08-07T03:31:07.871Z,100.00
2023-08-07T03:33:36.546Z,100.00
2023-08-07T03:36:03.525Z,100.00
2023-08-07T03:38:30.367Z,100.00
2023-08-07T03:40:57.943Z,100.00
2023-08-07T03:43:25.202Z,100.00
2023-08-07T03:46:00.335Z,100.00
2023-08-07T03:48:30.601Z,100.00
2023-08-07T03:51:05.608Z,100.00
2023-08-07T03:53:36.404Z,100.00
2023-08-07T03:56:03.536Z,100.00
2023-08-07T03:58:31.829Z,100.00
2023-08-07T04:00:58.840Z,100.00
2023-08-07T04:03:26.522Z,100.00
2023-08-07T04:05:55.621Z,100.00
2023-08-07T04:08:24.258Z,100.00
2023-08-07T04:11:04.440Z,100.00
2023-08-07T04:13:33.499Z,100.00
2023-08-07T04:16:02.149Z,100.00
2023-08-07T04:18:30.283Z,100.00
2023-08-07T04:20:58.156Z,100.00
2023-08-07T04:23:25.571Z,100.00
2023-08-07T04:25:53.859Z,100.00
2023-08-07T04:28:20.835Z,100.00
2023-08-07T04:30:52.168Z,100.00
2023-08-07T04:33:20.188Z,100.00
2023-08-07T04:35:47.933Z,100.00
2023-08-07T04:38:18.519Z,100.00
2023-08-07T04:40:49.558Z,100.00
2023-08-07T04:43:23.226Z,100.00
2023-08-07T04:45:50.491Z,100.00
2023-08-07T04:48:19.092Z,100.00
2023-08-07T04:50:46.098Z,100.00
2023-08-07T04:53:12.964Z,100.00
2023-08-07T04:55:40.001Z,100.00
2023-08-07T04:58:07.010Z,100.00
2023-08-07T05:00:34.138Z,100.00
2023-08-07T05:03:01.390Z,100.00
2023-08-07T05:05:28.932Z,100.00
2023-08-07T05:07:56.660Z,100.00
2023-08-07T05:10:23.565Z,97.68
2023-08-07T05:12:56.224Z,97.87
2023-08-07T05:15:27.169Z,95.21
2023-08-07T05:17:54.247Z,94.66
2023-08-07T05:20:21.375Z,95.35
2023-08-07T05:22:48.266Z,94.56
2023-08-07T05:25:17.079Z,96.22
2023-08-07T05:27:44.768Z,95.62
2023-08-07T05:30:12.380Z,94.43
2023-08-07T05:32:39.291Z,93.45
2023-08-07T05:35:07.109Z,96.04
2023-08-07T05:37:34.696Z,91.36
2023-08-07T05:40:01.619Z,94.37
2023-08-07T05:42:28.795Z,91.54
2023-08-07T05:44:55.805Z,93.75
2023-08-07T05:47:22.632Z,92.33
2023-08-07T05:49:49.412Z,86.54
2023-08-07T05:52:16.866Z,86.17
2023-08-07T05:54:43.668Z,84.85
2023-08-07T05:57:10.959Z,85.32
2023-08-07T05:59:37.822Z,85.82
2023-08-07T06:02:05.519Z,86.23
2023-08-07T06:04:32.609Z,84.47
2023-08-07T06:06:59.403Z,84.81
2023-08-07T06:09:26.779Z,82.95
2023-08-07T06:11:53.789Z,77.81
2023-08-07T06:14:20.714Z,80.64
2023-08-07T06:16:47.609Z,78.47
2023-08-07T06:19:29.229Z,76.97
2023-08-07T06:21:58.906Z,78.56
2023-08-07T06:24:26.983Z,80.62
2023-08-07T06:26:53.956Z,81.13
2023-08-07T06:29:20.707Z,77.88
2023-08-07T06:31:47.496Z,83.21
2023-08-07T06:34:14.354Z,80.59
2023-08-07T06:36:41.414Z,79.80
2023-08-07T06:39:08.260Z,79.04
2023-08-07T06:41:35.054Z,75.48
2023-08-07T06:44:01.845Z,76.81
2023-08-07T06:46:29.114Z,73.81
2023-08-07T06:48:55.963Z,71.80
2023-08-07T06:51:22.929Z,74.42
2023-08-07T06:53:49.753Z,75.31
2023-08-07T06:56:16.591Z,70.53
2023-08-07T06:58:43.545Z,69.92
2023-08-07T07:01:10.455Z,66.57
2023-08-07T07:03:37.265Z,66.07
2023-08-07T07:06:04.361Z,65.77
2023-08-07T07:08:31.130Z,64.63
2023-08-07T07:10:59.537Z,65.05
2023-08-07T07:13:26.352Z,64.48
2023-08-07T07:15:56.694Z,64.10
2023-08-07T07:18:23.627Z,66.88
2023-08-07T07:20:58.681Z,62.95
2023-08-07T07:23:25.963Z,64.95
2023-08-07T07:25:52.755Z,62.19
2023-08-07T07:28:19.594Z,63.44
2023-08-07T07:30:46.502Z,61.58
2023-08-07T07:33:14.986Z,63.24
2023-08-07T07:35:41.864Z,61.34
2023-08-07T07:38:09.166Z,62.56
2023-08-07T07:40:36.366Z,59.37
2023-08-07T07:43:04.315Z,59.06
2023-08-07T07:45:31.259Z,60.26
2023-08-07T07:47:58.159Z,59.92
2023-08-07T07:50:25.015Z,59.32
2023-08-07T07:52:51.837Z,60.74
2023-08-07T07:55:18.734Z,59.65
2023-08-07T07:57:45.577Z,56.55
2023-08-07T08:00:14.287Z,59.01
2023-08-07T08:02:44.613Z,58.77
2023-08-07T08:05:16.722Z,57.72
2023-08-07T08:07:43.850Z,58.22
2023-08-07T08:10:11.140Z,59.62
2023-08-07T08:12:38.195Z,57.51
2023-08-07T08:15:06.040Z,55.94
2023-08-07T08:17:33.339Z,58.85
2023-08-07T08:20:00.490Z,57.62
2023-08-07T08:22:27.373Z,55.55
2023-08-07T08:24:54.188Z,57.52
2023-08-07T08:27:21.037Z,56.47
2023-08-07T08:29:47.915Z,58.71
2023-08-07T08:32:15.114Z,57.03
2023-08-07T08:34:41.987Z,57.15
2023-08-07T08:37:09.210Z,54.92
2023-08-07T08:39:36.088Z,56.60
2023-08-07T08:42:03.481Z,55.26
2023-08-07T08:44:32.537Z,55.83
2023-08-07T08:47:01.636Z,55.52
2023-08-07T08:49:33.736Z,54.22
2023-08-07T08:52:01.119Z,56.00
2023-08-07T08:54:28.198Z,54.99
2023-08-07T08:56:58.426Z,54.91
2023-08-07T08:59:25.625Z,52.84
2023-08-07T09:01:53.918Z,53.81
2023-08-07T09:04:20.869Z,54.24
2023-08-07T09:06:48.724Z,54.05
2023-08-07T09:09:17.820Z,55.13
2023-08-07T09:11:47.044Z,53.98
2023-08-07T09:14:23.291Z,52.56
2023-08-07T09:16:51.390Z,52.34
2023-08-07T09:19:18.602Z,53.67
2023-08-07T09:21:45.417Z,54.59
2023-08-07T09:24:12.947Z,53.45
2023-08-07T09:26:46.142Z,54.39
2023-08-07T09:29:13.384Z,53.92
2023-08-07T09:31:44.007Z,54.70
2023-08-07T09:34:11.284Z,55.23
2023-08-07T09:36:38.219Z,56.50
2023-08-07T09:39:05.829Z,55.30
2023-08-07T09:41:33.137Z,56.03
2023-08-07T09:44:07.697Z,54.57
2023-08-07T09:46:42.298Z,56.10
2023-08-07T09:49:09.934Z,55.85
2023-08-07T09:51:47.648Z,56.18
2023-08-07T09:54:14.806Z,55.54
2023-08-07T09:56:41.905Z,56.90
2023-08-07T09:59:09.539Z,55.72
2023-08-07T10:01:40.528Z,53.00
2023-08-07T10:04:08.535Z,54.79
2023-08-07T10:06:35.646Z,55.70
2023-08-07T10:09:03.393Z,54.59
2023-08-07T10:11:30.764Z,55.44
2023-08-07T10:13:58.802Z,53.28
2023-08-07T10:16:28.543Z,55.06
2023-08-07T10:18:55.696Z,53.94
2023-08-07T10:21:24.533Z,56.26
2023-08-07T10:23:55.228Z,58.22
2023-08-07T10:26:24.949Z,56.63
2023-08-07T10:28:54.607Z,55.68
2023-08-07T10:31:24.620Z,54.14
2023-08-07T10:33:52.183Z,56.05
2023-08-07T10:36:20.112Z,57.50
2023-08-07T10:38:50.946Z,53.99
2023-08-07T10:41:19.469Z,56.38
2023-08-07T10:43:47.196Z,55.37
2023-08-07T10:46:17.218Z,54.96
2023-08-07T10:48:48.600Z,53.25
2023-08-07T10:51:16.812Z,54.19
2023-08-07T10:53:46.967Z,53.43
2023-08-07T10:56:33.200Z,53.32
2023-08-07T10:59:10.577Z,53.01
2023-08-07T11:01:40.204Z,52.23
2023-08-07T11:04:11.889Z,52.29
2023-08-07T11:06:39.863Z,51.65
2023-08-07T11:09:09.892Z,51.74
2023-08-07T11:11:41.672Z,51.31
2023-08-07T11:14:10.704Z,50.77
2023-08-07T11:16:38.296Z,48.96
2023-08-07T11:19:06.391Z,50.37
2023-08-07T11:21:34.532Z,53.11
2023-08-07T11:24:02.519Z,52.27
2023-08-07T11:26:29.965Z,55.81
2023-08-07T11:28:57.221Z,55.82
2023-08-07T11:31:26.050Z,54.43
2023-08-07T11:33:53.923Z,53.39
2023-08-07T11:36:20.775Z,51.89
2023-08-07T11:38:47.736Z,52.73
2023-08-07T11:41:16.934Z,49.89
2023-08-07T11:43:44.466Z,47.54
2023-08-07T11:46:13.207Z,46.92
2023-08-07T11:48:42.353Z,50.65
2023-08-07T11:51:09.463Z,53.28
2023-08-07T11:53:41.206Z,50.07
2023-08-07T11:56:15.867Z,51.29
2023-08-07T11:58:47.067Z,52.63
2023-08-07T12:01:22.471Z,48.30
2023-08-07T12:03:52.582Z,52.55
2023-08-07T12:06:19.506Z,49.91
2023-08-07T12:08:46.322Z,50.03
2023-08-07T12:11:14.548Z,46.68
2023-08-07T12:13:43.381Z,44.21
2023-08-07T12:16:10.781Z,47.46
2023-08-07T12:18:39.816Z,44.66
2023-08-07T12:21:08.682Z,44.11
2023-08-07T12:23:36.944Z,46.96
2023-08-07T12:26:07.404Z,45.69
2023-08-07T12:28:35.689Z,45.72
2023-08-07T12:31:03.156Z,44.92
2023-08-07T12:33:30.768Z,44.51
2023-08-07T12:35:58.459Z,44.64
2023-08-07T12:38:25.610Z,43.46
2023-08-07T12:40:52.752Z,47.97
2023-08-07T12:43:19.704Z,49.88
2023-08-07T12:48:16.372Z,53.02
2023-08-07T12:50:43.204Z,54.58
2023-08-07T12:53:09.983Z,53.96
2023-08-07T12:55:36.863Z,56.10
2023-08-07T12:58:03.634Z,56.09
2023-08-07T13:00:30.499Z,55.71
2023-08-07T13:02:57.468Z,57.30
2023-08-07T13:05:24.331Z,58.67
2023-08-07T13:07:55.413Z,58.25
2023-08-07T13:10:23.371Z,58.60
2023-08-07T13:12:50.914Z,64.48
2023-08-07T13:15:18.592Z,77.12
2023-08-07T13:17:45.586Z,81.74
2023-08-07T13:20:14.382Z,82.09
2023-08-07T13:22:43.766Z,79.89
2023-08-07T13:25:11.999Z,85.28
2023-08-07T13:27:40.678Z,84.18
2023-08-07T13:30:08.879Z,86.02
2023-08-07T13:32:36.292Z,87.60
2023-08-07T13:35:04.272Z,91.07
2023-08-07T13:37:31.124Z,91.51
2023-08-07T13:39:57.918Z,94.39
2023-08-07T13:42:27.176Z,93.39
2023-08-07T13:44:54.914Z,94.52
2023-08-07T13:47:21.871Z,97.08
2023-08-07T13:49:49.173Z,97.22
2023-08-07T13:52:16.239Z,97.58
2023-08-07T13:54:43.252Z,92.23
2023-08-07T13:57:10.192Z,94.39
2023-08-07T13:59:37.006Z,94.94
2023-08-07T14:02:03.883Z,91.59
2023-08-07T14:04:30.785Z,95.55
2023-08-07T14:06:59.433Z,93.07
2023-08-07T14:09:26.667Z,89.22
2023-08-07T14:11:53.444Z,93.74
2023-08-07T14:14:20.601Z,94.57
2023-08-07T14:16:47.459Z,93.39
2023-08-07T14:19:14.495Z,92.69
2023-08-07T14:21:41.391Z,91.11
2023-08-07T14:24:08.286Z,90.46
2023-08-07T14:26:35.261Z,89.57
2023-08-07T14:29:02.104Z,75.34
2023-08-07T14:31:29.009Z,64.55
2023-08-07T14:33:55.871Z,73.20
2023-08-07T14:36:22.689Z,78.21
2023-08-07T14:38:49.462Z,77.25
2023-08-07T14:41:16.386Z,81.06
2023-08-07T14:43:43.141Z,78.13
2023-08-07T14:46:10.031Z,79.44
2023-08-07T14:48:37.988Z,78.32
2023-08-07T14:51:05.120Z,78.05
2023-08-07T14:53:32.562Z,79.71
2023-08-07T14:55:59.876Z,74.64
2023-08-07T14:58:26.628Z,78.58
2023-08-07T15:00:56.458Z,74.68
2023-08-07T15:03:23.319Z,77.20
2023-08-07T15:05:50.208Z,76.21
2023-08-07T15:08:17.028Z,79.34
2023-08-07T15:10:43.923Z,78.56
2023-08-07T15:13:10.901Z,79.58
2023-08-07T15:15:37.824Z,81.47
2023-08-07T15:18:06.410Z,78.51
2023-08-07T15:20:35.564Z,82.04
2023-08-07T15:23:03.936Z,76.71
2023-08-07T15:25:30.821Z,81.45
2023-08-07T15:28:01.323Z,81.70
2023-08-07T15:30:30.229Z,80.54
2023-08-07T15:32:57.407Z,81.47
2023-08-07T15:35:24.618Z,80.09
2023-08-07T15:37:51.508Z,79.94
2023-08-07T15:40:18.356Z,76.74
2023-08-07T15:42:46.588Z,74.91
2023-08-07T15:45:14.386Z,74.57
2023-08-07T15:47:41.534Z,79.82
2023-08-07T15:50:08.778Z,76.60
2023-08-07T15:52:35.738Z,78.56
2023-08-07T15:55:02.991Z,79.86
2023-08-07T15:57:30.055Z,81.14
2023-08-07T15:59:57.064Z,79.37
2023-08-07T16:02:23.831Z,79.01
2023-08-07T16:04:50.976Z,76.67
2023-08-07T16:07:17.876Z,75.57
2023-08-07T16:09:44.740Z,77.99
2023-08-07T16:12:11.678Z,79.78
2023-08-07T16:14:39.363Z,74.83
2023-08-07T16:17:06.603Z,73.52
2023-08-07T16:19:33.565Z,72.99
2023-08-07T16:22:00.398Z,69.43
2023-08-07T16:24:27.347Z,76.06
2023-08-07T16:26:54.318Z,73.56
2023-08-07T16:29:21.231Z,75.13
2023-08-07T16:31:48.087Z,74.18
2023-08-07T16:34:14.957Z,75.30
2023-08-07T16:36:41.769Z,72.01
2023-08-07T16:39:08.575Z,74.99
2023-08-07T16:41:35.629Z,74.83
2023-08-07T16:44:02.461Z,74.15
2023-08-07T16:46:30.853Z,76.75
2023-08-07T16:48:58.617Z,73.93
2023-08-07T16:51:27.200Z,74.25
2023-08-07T16:53:55.255Z,77.84
2023-08-07T16:56:22.115Z,73.11
2023-08-07T16:58:49.881Z,76.53
2023-08-07T17:01:17.121Z,76.54
2023-08-07T17:03:44.829Z,75.61
2023-08-07T17:06:11.850Z,73.53
2023-08-07T17:08:39.696Z,79.75
2023-08-07T17:11:06.749Z,77.75
2023-08-07T17:13:33.927Z,79.20
2023-08-07T17:16:00.832Z,82.93
2023-08-07T17:18:27.642Z,81.72
2023-08-07T17:20:54.464Z,82.06
2023-08-07T17:23:21.199Z,84.80
2023-08-07T17:25:48.058Z,85.18
2023-08-07T17:28:14.878Z,86.14
2023-08-07T17:30:41.696Z,84.44
2023-08-07T17:33:08.699Z,86.53
2023-08-07T17:35:35.952Z,85.48
2023-08-07T17:38:02.939Z,85.89
2023-08-07T17:40:29.733Z,89.21
2023-08-07T17:42:56.548Z,91.06
2023-08-07T17:45:24.720Z,87.85
2023-08-07T17:47:51.653Z,88.39
2023-08-07T17:50:18.669Z,86.67
2023-08-07T17:52:45.714Z,89.10
2023-08-07T17:55:13.752Z,85.23
2023-08-07T17:57:40.623Z,86.74
2023-08-07T18:00:17.285Z,86.26
2023-08-07T18:02:44.664Z,88.47
2023-08-07T18:05:11.868Z,91.48
2023-08-07T18:07:39.654Z,89.26
2023-08-07T18:10:07.177Z,87.28
2023-08-07T18:12:34.151Z,85.96
2023-08-07T18:15:01.672Z,83.57
2023-08-07T18:17:30.783Z,81.44
2023-08-07T18:19:57.772Z,84.88
2023-08-07T18:22:25.155Z,86.57
2023-08-07T18:24:51.919Z,81.91
2023-08-07T18:27:19.385Z,83.49
2023-08-07T18:29:46.225Z,81.89
2023-08-07T18:32:13.452Z,83.41
2023-08-07T18:34:40.539Z,82.22
2023-08-07T18:37:07.341Z,78.83
2023-08-07T18:39:34.176Z,80.43
2023-08-07T18:42:01.182Z,83.08
2023-08-07T18:44:27.972Z,81.20
2023-08-07T18:46:54.974Z,81.49
2023-08-07T18:49:22.193Z,81.12
2023-08-07T18:51:49.196Z,81.11
2023-08-07T18:54:16.112Z,80.81
2023-08-07T18:56:43.697Z,78.61
2023-08-07T18:59:10.653Z,82.90
2023-08-07T19:01:37.544Z,79.60
2023-08-07T19:04:05.598Z,80.38
2023-08-07T19:06:33.905Z,82.44
2023-08-07T19:09:00.821Z,82.38
2023-08-07T19:11:29.874Z,81.96
2023-08-07T19:13:58.311Z,78.83
2023-08-07T19:16:25.437Z,78.98
2023-08-07T19:18:52.396Z,79.18
2023-08-07T19:21:19.347Z,81.22
2023-08-07T19:23:46.165Z,80.82
2023-08-07T19:26:12.985Z,85.55
2023-08-07T19:28:41.143Z,82.14
2023-08-07T19:31:08.113Z,81.20
2023-08-07T19:33:35.157Z,83.55
2023-08-07T19:36:02.205Z,84.22
2023-08-07T19:38:29.167Z,82.60
2023-08-07T19:40:55.946Z,81.48
2023-08-07T19:43:24.383Z,79.79
2023-08-07T19:45:51.276Z,79.81
2023-08-07T19:48:18.228Z,80.77
2023-08-07T19:50:45.820Z,80.98
2023-08-07T19:53:12.648Z,81.12
2023-08-07T19:55:39.518Z,82.75
2023-08-07T19:58:06.236Z,81.18
2023-08-07T20:00:33.064Z,84.05
2023-08-07T20:03:00.326Z,81.24
2023-08-07T20:05:27.480Z,80.68
2023-08-07T20:07:54.929Z,77.62
2023-08-07T20:10:24.958Z,78.57
2023-08-07T20:12:52.497Z,76.80
2023-08-07T20:15:20.986Z,77.60
2023-08-07T20:17:50.075Z,77.55
2023-08-07T20:20:21.098Z,74.54
2023-08-07T20:22:48.897Z,76.25
2023-08-07T20:25:16.263Z,75.84
2023-08-07T20:27:43.490Z,76.20
2023-08-07T20:30:10.815Z,74.22
2023-08-07T20:32:38.726Z,76.86
2023-08-07T20:35:05.940Z,78.11
2023-08-07T20:37:32.723Z,73.95
2023-08-07T20:39:59.551Z,76.53
2023-08-07T20:42:26.574Z,79.27
2023-08-07T20:44:53.407Z,80.81
2023-08-07T20:47:20.234Z,87.70
2023-08-07T20:49:47.908Z,78.96
2023-08-07T20:52:14.789Z,79.56
2023-08-07T20:54:41.548Z,78.19
2023-08-07T20:57:08.353Z,79.14
2023-08-07T20:59:35.200Z,80.39
2023-08-07T21:02:02.203Z,79.84
2023-08-07T21:04:29.008Z,79.82
2023-08-07T21:06:56.051Z,78.24
2023-08-07T21:09:22.934Z,79.55
2023-08-07T21:11:50.000Z,79.19
2023-08-07T21:14:16.871Z,79.45
2023-08-07T21:16:44.981Z,84.61
2023-08-07T21:19:13.057Z,80.85
2023-08-07T21:21:40.394Z,78.98
2023-08-07T21:24:13.186Z,81.02
2023-08-07T21:26:41.666Z,77.83
2023-08-07T21:29:08.708Z,82.96
2023-08-07T21:31:35.818Z,82.27
2023-08-07T21:34:03.223Z,77.74
2023-08-07T21:36:30.154Z,79.10
2023-08-07T21:38:58.806Z,79.69
2023-08-07T21:41:27.148Z,80.27
2023-08-07T21:43:54.725Z,79.43
2023-08-07T21:46:24.140Z,82.80
2023-08-07T21:48:51.904Z,88.84
2023-08-07T21:51:19.039Z,84.02
2023-08-07T21:53:46.033Z,78.28
2023-08-07T21:56:13.073Z,80.83
2023-08-07T21:58:39.941Z,83.01
2023-08-07T22:01:06.651Z,81.13
2023-08-07T22:03:33.491Z,81.77
2023-08-07T22:06:00.487Z,79.61
2023-08-07T22:08:27.315Z,78.23
2023-08-07T22:10:54.159Z,77.65
2023-08-07T22:13:21.295Z,80.18
2023-08-07T22:15:48.257Z,84.13
2023-08-07T22:18:15.169Z,79.69
2023-08-07T22:20:43.415Z,81.48
2023-08-07T22:23:10.363Z,87.20
2023-08-07T22:25:37.311Z,89.68
2023-08-07T22:28:04.989Z,85.85
2023-08-07T22:30:31.736Z,88.26
2023-08-07T22:32:59.512Z,92.36
2023-08-07T22:35:26.710Z,92.69
2023-08-07T22:37:53.548Z,89.61
2023-08-07T22:40:20.505Z,88.03
2023-08-07T22:42:47.277Z,89.34
2023-08-07T22:45:14.306Z,88.44
2023-08-07T22:47:41.110Z,88.50
2023-08-07T22:50:08.275Z,90.20
2023-08-07T22:52:35.305Z,91.87
2023-08-07T22:55:02.331Z,91.28
2023-08-07T22:57:29.086Z,90.64
2023-08-07T22:59:55.882Z,93.38
2023-08-07T23:02:22.697Z,92.08
2023-08-07T23:04:49.465Z,95.51
2023-08-07T23:07:17.116Z,90.70
2023-08-07T23:09:43.987Z,91.08
2023-08-07T23:12:11.019Z,91.77
2023-08-07T23:14:37.753Z,92.13
2023-08-07T23:17:05.421Z,94.42
2023-08-07T23:19:33.314Z,94.98
2023-08-07T23:22:00.303Z,92.35
2023-08-07T23:24:27.326Z,95.07
2023-08-07T23:26:54.177Z,95.67
2023-08-07T23:29:21.281Z,96.17
2023-08-07T23:31:48.187Z,96.54
2023-08-07T23:34:15.013Z,97.23
2023-08-07T23:36:41.830Z,94.21
2023-08-07T23:39:08.996Z,100.00
2023-08-07T23:41:35.942Z,97.85
2023-08-07T23:44:02.850Z,98.33
2023-08-07T23:46:29.627Z,97.22
2023-08-07T23:48:56.835Z,99.52
2023-08-07T23:51:24.401Z,98.10
2023-08-07T23:53:51.596Z,97.09
2023-08-07T23:56:18.613Z,98.07
2023-08-07T23:58:45.383Z,96.20
